TFM - Tactical Decision Aid
ID: Runway Winds: CIG/VIS Threshold:

KJAN - Jackson/Evers Intl, MS, US

Updated at: 1117 UTC 07 Dec 2022
Latest TAF at: 0909 UTC 07 Dec 2022

TAF Board

Time1054Z 07/12Z 07/13Z 07/14Z 07/15Z 07/16Z 07/17Z 07/18Z 07/19Z 07/20Z 07/21Z 07/22Z 07/23Z 08/00Z>>
Type OBS PRVL PRVL PRVL PRVL PRVL PRVL PRVL PRVL PRVL PRVL PRVL PRVL PRVL
VIS 9 >6 >6 >6 >6 >6 >6 >6 >6 >6 >6 >6 >6 >6
CIG -- 8 8 8 15 15 35 35 35 35 35 35 250 250
Cover FEW OVC OVC OVC OVC OVC BKN BKN BKN BKN BKN BKN BKN BKN
FltCat VFR IFR IFR IFR MVFR MVFR VFR VFR VFR VFR VFR VFR VFR VFR
WX -- -- -- -- -- -- -- -- -- -- -- -- -- --
WDir 190 200 200 200 200 200 200 200 200 200 200 200 180 180
WSpd 7 9 9 9 9 9 12 12 12 12 12 12 5 5
WGst -- -- -- -- -- -- 18 18 18 18 18 18 -- --
WSHgt -- -- -- -- -- -- -- -- -- -- -- -- -- --
WSDir -- -- -- -- -- -- -- -- -- -- -- -- -- --
WSSpd -- -- -- -- -- -- -- -- -- -- -- -- -- --

TDA Impact Legend

  None Marginal Slight Moderate High
Visibility (sm) >5 3≤X≤5 2≤X<3 0.5≤X<2 <0.5
Ceiling (100 ft) >30 10≤X≤30 6≤X<10 2≤X<6 <2
Wind Speed (kt) <15 15≤X<25 25≤X<30 ≥30
Wind Gust (kt) <15 15≤X<25 25≤X<35 ≥35
Weather No Wx Reported VCTS -TS,-FZRA TS,FZRA +TS,+FZRA
TAF
KJAN 070909Z 0709/0806 20009KT P6SM OVC008
  FM071500 20009KT P6SM OVC015
  FM071700 20012G18KT P6SM BKN035
  FM072300 18005KT P6SM BKN250


METAR
KJAN 071054Z AUTO 19007KT 9SM FEW016 21/19 A3019 RMK AO2 SLP220 T02060189
KJAN 071046Z AUTO 19006KT 9SM SCT012 BKN018 21/19 A3019 RMK AO2 T02060189
KJAN 071027Z AUTO 20008KT 9SM SCT008 OVC012 21/19 A3019 RMK AO2 T02110194
KJAN 070954Z AUTO 20009KT 8SM OVC006 21/19 A3018 RMK AO2 CIG 006V010 SLP216 T02110194
KJAN 070909Z AUTO 20011G17KT 10SM OVC007 21/19 A3018 RMK AO2 T02060194
KJAN 070854Z AUTO 20010KT 10SM OVC008 21/19 A3018 RMK AO2 SLP215 T02110194 53013
KJAN 070816Z AUTO 20009KT 9SM BKN009 21/19 A3017 RMK AO2 T02110194
KJAN 070754Z AUTO 20007KT 10SM SCT010 21/19 A3016 RMK AO2 SLP210 T02110194

Radar Display
Forecast Discussion